sensor_id;sensor_type;location;lat;lon;timestamp;pressure;altitude;pressure_sealevel;temperature;humidity
49949;BME280;35840;45.982;8.890;2023-03-04T00:01:15;98580.75;;;5.65;67.05
49949;BME280;35840;45.982;8.890;2023-03-04T00:03:42;98574.19;;;5.58;67.46
49949;BME280;35840;45.982;8.890;2023-03-04T00:06:08;98578.25;;;5.63;67.13
49949;BME280;35840;45.982;8.890;2023-03-04T00:08:35;98594.22;;;5.68;67.12
49949;BME280;35840;45.982;8.890;2023-03-04T00:11:03;98591.88;;;5.62;67.20
49949;BME280;35840;45.982;8.890;2023-03-04T00:13:30;98592.72;;;5.63;67.92
49949;BME280;35840;45.982;8.890;2023-03-04T00:15:57;98584.28;;;5.61;66.46
49949;BME280;35840;45.982;8.890;2023-03-04T00:18:23;98561.06;;;5.45;67.00
49949;BME280;35840;45.982;8.890;2023-03-04T00:20:50;98588.88;;;5.51;68.17
49949;BME280;35840;45.982;8.890;2023-03-04T00:23:17;98583.16;;;5.44;67.63
49949;BME280;35840;45.982;8.890;2023-03-04T00:25:43;98583.16;;;5.44;68.19
49949;BME280;35840;45.982;8.890;2023-03-04T00:28:10;98588.25;;;5.46;67.74
49949;BME280;35840;45.982;8.890;2023-03-04T00:30:37;98599.25;;;5.46;68.03
49949;BME280;35840;45.982;8.890;2023-03-04T00:33:04;98595.16;;;5.42;67.68
49949;BME280;35840;45.982;8.890;2023-03-04T00:35:31;98595.97;;;5.43;67.99
49949;BME280;35840;45.982;8.890;2023-03-04T00:37:57;98597.75;;;5.41;67.26
49949;BME280;35840;45.982;8.890;2023-03-04T00:40:25;98597.03;;;5.37;67.90
49949;BME280;35840;45.982;8.890;2023-03-04T00:42:52;98597.47;;;5.25;68.08
49949;BME280;35840;45.982;8.890;2023-03-04T00:45:19;98599.22;;;5.23;68.29
49949;BME280;35840;45.982;8.890;2023-03-04T00:47:46;98595.81;;;5.24;68.09
49949;BME280;35840;45.982;8.890;2023-03-04T00:50:12;98590.59;;;5.27;67.89
49949;BME280;35840;45.982;8.890;2023-03-04T00:52:39;98593.94;;;5.29;67.87
49949;BME280;35840;45.982;8.890;2023-03-04T00:55:06;98593.47;;;5.17;67.92
49949;BME280;35840;45.982;8.890;2023-03-04T00:57:34;98596.03;;;5.17;68.44
49949;BME280;35840;45.982;8.890;2023-03-04T01:00:00;98591.00;;;5.16;68.45
49949;BME280;35840;45.982;8.890;2023-03-04T01:02:27;98597.59;;;5.22;67.39
49949;BME280;35840;45.982;8.890;2023-03-04T01:04:54;98594.19;;;5.21;67.61
49949;BME280;35840;45.982;8.890;2023-03-04T01:07:20;98587.41;;;5.22;67.68
49949;BME280;35840;45.982;8.890;2023-03-04T01:09:47;98571.78;;;5.06;68.62
49949;BME280;35840;45.982;8.890;2023-03-04T01:12:14;98590.81;;;5.21;68.09
49949;BME280;35840;45.982;8.890;2023-03-04T01:14:42;98597.84;;;5.14;68.06
49949;BME280;35840;45.982;8.890;2023-03-04T01:17:08;98567.78;;;4.98;68.17
49949;BME280;35840;45.982;8.890;2023-03-04T01:19:37;98583.53;;;5.10;67.58
49949;BME280;35840;45.982;8.890;2023-03-04T01:22:04;98577.72;;;5.06;67.59
49949;BME280;35840;45.982;8.890;2023-03-04T01:24:31;98582.72;;;5.09;67.52
49949;BME280;35840;45.982;8.890;2023-03-04T01:26:57;98581.16;;;5.05;67.96
49949;BME280;35840;45.982;8.890;2023-03-04T01:29:24;98582.09;;;5.03;68.38
49949;BME280;35840;45.982;8.890;2023-03-04T01:31:51;98583.94;;;4.97;68.16
49949;BME280;35840;45.982;8.890;2023-03-04T01:34:18;98581.44;;;4.96;68.66
49949;BME280;35840;45.982;8.890;2023-03-04T01:36:45;98572.34;;;4.89;68.95
49949;BME280;35840;45.982;8.890;2023-03-04T01:39:12;98581.69;;;4.90;68.90
49949;BME280;35840;45.982;8.890;2023-03-04T01:41:39;98574.84;;;4.90;68.83
49949;BME280;35840;45.982;8.890;2023-03-04T01:44:05;98571.47;;;4.90;68.64
49949;BME280;35840;45.982;8.890;2023-03-04T01:46:35;98575.53;;;4.95;68.84
49949;BME280;35840;45.982;8.890;2023-03-04T01:49:03;98569.69;;;4.93;68.94
49949;BME280;35840;45.982;8.890;2023-03-04T01:51:31;98570.59;;;4.91;68.38
49949;BME280;35840;45.982;8.890;2023-03-04T01:53:58;98564.00;;;4.85;67.94
49949;BME280;35840;45.982;8.890;2023-03-04T01:56:29;98577.63;;;4.84;68.55
49949;BME280;35840;45.982;8.890;2023-03-04T02:01:48;98565.91;;;4.78;67.95
49949;BME280;35840;45.982;8.890;2023-03-04T02:04:17;98561.66;;;4.79;68.46
49949;BME280;35840;45.982;8.890;2023-03-04T02:06:45;98561.75;;;4.76;68.56
49949;BME280;35840;45.982;8.890;2023-03-04T02:09:13;98550.69;;;4.77;68.49
49949;BME280;35840;45.982;8.890;2023-03-04T02:11:42;98544.91;;;4.72;68.30
49949;BME280;35840;45.982;8.890;2023-03-04T02:14:11;98548.19;;;4.75;68.01
49949;BME280;35840;45.982;8.890;2023-03-04T02:16:38;98552.56;;;4.72;67.48
49949;BME280;35840;45.982;8.890;2023-03-04T02:21:52;98544.31;;;4.63;68.17
49949;BME280;35840;45.982;8.890;2023-03-04T02:24:35;98539.28;;;4.62;68.24
49949;BME280;35840;45.982;8.890;2023-03-04T02:27:04;98538.47;;;4.61;68.41
49949;BME280;35840;45.982;8.890;2023-03-04T02:29:31;98522.06;;;4.43;68.20
49949;BME280;35840;45.982;8.890;2023-03-04T02:31:58;98535.34;;;4.53;68.00
49949;BME280;35840;45.982;8.890;2023-03-04T02:34:30;98533.66;;;4.52;68.65
49949;BME280;35840;45.982;8.890;2023-03-04T02:36:59;98529.59;;;4.48;68.60
49949;BME280;35840;45.982;8.890;2023-03-04T02:39:38;98527.97;;;4.45;68.71
49949;BME280;35840;45.982;8.890;2023-03-04T02:42:06;98524.88;;;4.36;68.37
49949;BME280;35840;45.982;8.890;2023-03-04T02:44:36;98505.59;;;4.28;68.52
49949;BME280;35840;45.982;8.890;2023-03-04T02:47:05;98522.41;;;4.34;68.57
49949;BME280;35840;45.982;8.890;2023-03-04T02:49:35;98525.66;;;4.38;68.55
49949;BME280;35840;45.982;8.890;2023-03-04T02:54:31;98517.16;;;4.39;68.85
49949;BME280;35840;45.982;8.890;2023-03-04T02:57:03;98515.34;;;4.42;69.06
49949;BME280;35840;45.982;8.890;2023-03-04T02:59:34;98521.38;;;4.40;68.19
49949;BME280;35840;45.982;8.890;2023-03-04T03:02:02;98521.47;;;4.37;68.87
49949;BME280;35840;45.982;8.890;2023-03-04T03:04:28;98522.34;;;4.36;68.89
49949;BME280;35840;45.982;8.890;2023-03-04T03:06:56;98520.47;;;4.41;68.97
49949;BME280;35840;45.982;8.890;2023-03-04T03:09:23;98522.25;;;4.39;68.61
49949;BME280;35840;45.982;8.890;2023-03-04T03:11:50;98513.91;;;4.34;67.84
49949;BME280;35840;45.982;8.890;2023-03-04T03:14:18;98512.09;;;4.37;68.60
49949;BME280;35840;45.982;8.890;2023-03-04T03:16:45;98502.91;;;4.33;68.92
49949;BME280;35840;45.982;8.890;2023-03-04T03:19:11;98509.63;;;4.36;69.52
49949;BME280;35840;45.982;8.890;2023-03-04T03:21:39;98512.22;;;4.34;68.59
49949;BME280;35840;45.982;8.890;2023-03-04T03:24:05;98519.09;;;4.30;69.58
49949;BME280;35840;45.982;8.890;2023-03-04T03:26:32;98507.31;;;4.28;69.03
49949;BME280;35840;45.982;8.890;2023-03-04T03:28:58;98501.59;;;4.21;69.55
49949;BME280;35840;45.982;8.890;2023-03-04T03:31:26;98509.28;;;4.20;69.96
49949;BME280;35840;45.982;8.890;2023-03-04T03:33:53;98514.38;;;4.20;69.22
49949;BME280;35840;45.982;8.890;2023-03-04T03:36:20;98500.97;;;4.14;69.04
49949;BME280;35840;45.982;8.890;2023-03-04T03:38:47;98506.16;;;4.11;69.70
49949;BME280;35840;45.982;8.890;2023-03-04T03:41:14;98505.22;;;4.14;69.08
49949;BME280;35840;45.982;8.890;2023-03-04T03:43:40;98506.69;;;4.21;69.44
49949;BME280;35840;45.982;8.890;2023-03-04T03:46:07;98496.69;;;4.15;68.93
49949;BME280;35840;45.982;8.890;2023-03-04T03:48:34;98508.44;;;4.19;69.19
49949;BME280;35840;45.982;8.890;2023-03-04T03:51:02;98497.63;;;4.12;69.76
49949;BME280;35840;45.982;8.890;2023-03-04T03:53:29;98497.63;;;4.12;69.06
49949;BME280;35840;45.982;8.890;2023-03-04T03:55:55;98495.13;;;4.11;69.39
49949;BME280;35840;45.982;8.890;2023-03-04T03:58:22;98499.44;;;4.09;68.55
49949;BME280;35840;45.982;8.890;2023-03-04T04:00:49;98492.78;;;4.05;69.02
49949;BME280;35840;45.982;8.890;2023-03-04T04:03:16;98503.72;;;4.07;68.99
49949;BME280;35840;45.982;8.890;2023-03-04T04:05:43;98494.63;;;4.00;68.91
49949;BME280;35840;45.982;8.890;2023-03-04T04:08:13;98494.78;;;3.95;69.96
49949;BME280;35840;45.982;8.890;2023-03-04T04:10:40;98495.63;;;3.95;69.10
49949;BME280;35840;45.982;8.890;2023-03-04T04:13:08;98495.66;;;3.94;69.65
49949;BME280;35840;45.982;8.890;2023-03-04T04:15:34;98490.06;;;3.84;69.55
49949;BME280;35840;45.982;8.890;2023-03-04T04:18:05;98497.69;;;3.84;69.83
49949;BME280;35840;45.982;8.890;2023-03-04T04:20:32;98490.91;;;3.83;69.95
49949;BME280;35840;45.982;8.890;2023-03-04T04:22:58;98475.13;;;3.73;69.92
49949;BME280;35840;45.982;8.890;2023-03-04T04:25:25;98491.75;;;3.84;70.58
49949;BME280;35840;45.982;8.890;2023-03-04T04:27:52;98481.63;;;3.82;70.43
49949;BME280;35840;45.982;8.890;2023-03-04T04:30:19;98483.25;;;3.85;69.46
49949;BME280;35840;45.982;8.890;2023-03-04T04:32:45;98486.50;;;3.88;68.42
49949;BME280;35840;45.982;8.890;2023-03-04T04:35:12;98490.13;;;3.81;69.46
49949;BME280;35840;45.982;8.890;2023-03-04T04:37:39;98491.03;;;3.80;70.24
49949;BME280;35840;45.982;8.890;2023-03-04T04:40:06;98493.69;;;3.75;70.65
49949;BME280;35840;45.982;8.890;2023-03-04T04:42:33;98487.78;;;3.75;70.19
49949;BME280;35840;45.982;8.890;2023-03-04T04:44:59;98487.78;;;3.75;69.87
49949;BME280;35840;45.982;8.890;2023-03-04T04:47:26;98488.56;;;3.77;70.65
49949;BME280;35840;45.982;8.890;2023-03-04T04:49:54;98491.09;;;3.77;70.16
49949;BME280;35840;45.982;8.890;2023-03-04T04:52:21;98488.53;;;3.78;70.15
49949;BME280;35840;45.982;8.890;2023-03-04T04:54:47;98491.78;;;3.82;69.27
49949;BME280;35840;45.982;8.890;2023-03-04T04:57:14;98493.56;;;3.80;69.89
49949;BME280;35840;45.982;8.890;2023-03-04T04:59:41;98470.41;;;3.61;69.93
49949;BME280;35840;45.982;8.890;2023-03-04T05:02:07;98493.13;;;3.66;70.12
49949;BME280;35840;45.982;8.890;2023-03-04T05:04:34;98495.00;;;3.60;70.75
49949;BME280;35840;45.982;8.890;2023-03-04T05:07:01;98486.63;;;3.57;70.32
49949;BME280;35840;45.982;8.890;2023-03-04T05:09:28;98489.81;;;3.64;69.75
49949;BME280;35840;45.982;8.890;2023-03-04T05:11:54;98490.72;;;3.61;70.08
49949;BME280;35840;45.982;8.890;2023-03-04T05:14:21;98490.72;;;3.61;69.31
49949;BME280;35840;45.982;8.890;2023-03-04T05:16:48;98480.00;;;3.51;70.60
49949;BME280;35840;45.982;8.890;2023-03-04T05:19:14;98485.94;;;3.52;70.50
49949;BME280;35840;45.982;8.890;2023-03-04T05:21:41;98481.72;;;3.51;70.22
49949;BME280;35840;45.982;8.890;2023-03-04T05:24:08;98474.91;;;3.51;70.15
49949;BME280;35840;45.982;8.890;2023-03-04T05:26:35;98480.66;;;3.58;70.35
49949;BME280;35840;45.982;8.890;2023-03-04T05:29:02;98475.63;;;3.56;69.92
49949;BME280;35840;45.982;8.890;2023-03-04T05:31:29;98479.00;;;3.57;70.66
49949;BME280;35840;45.982;8.890;2023-03-04T05:33:56;98483.09;;;3.61;70.70
49949;BME280;35840;45.982;8.890;2023-03-04T05:36:22;98481.31;;;3.65;69.08
49949;BME280;35840;45.982;8.890;2023-03-04T05:38:49;98479.69;;;3.62;68.77
49949;BME280;35840;45.982;8.890;2023-03-04T05:41:16;98477.94;;;3.64;68.77
49949;BME280;35840;45.982;8.890;2023-03-04T05:43:45;98479.91;;;3.54;69.83
49949;BME280;35840;45.982;8.890;2023-03-04T05:46:14;98484.41;;;3.46;69.83
49949;BME280;35840;45.982;8.890;2023-03-04T05:48:42;98491.34;;;3.41;69.79
49949;BME280;35840;45.982;8.890;2023-03-04T05:51:09;98480.41;;;3.39;69.78
49949;BME280;35840;45.982;8.890;2023-03-04T05:53:36;98481.34;;;3.35;70.18
49949;BME280;35840;45.982;8.890;2023-03-04T05:56:11;98485.72;;;3.30;69.75
49949;BME280;35840;45.982;8.890;2023-03-04T05:58:38;98486.59;;;3.28;70.50
49949;BME280;35840;45.982;8.890;2023-03-04T06:01:05;98499.19;;;3.32;70.32
49949;BME280;35840;45.982;8.890;2023-03-04T06:03:32;98494.31;;;3.25;70.74
49949;BME280;35840;45.982;8.890;2023-03-04T06:05:59;98475.00;;;3.20;71.35
49949;BME280;35840;45.982;8.890;2023-03-04T06:08:26;98500.06;;;3.32;70.44
49949;BME280;35840;45.982;8.890;2023-03-04T06:10:55;98500.84;;;3.34;70.79
49949;BME280;35840;45.982;8.890;2023-03-04T06:13:22;98493.34;;;3.30;70.66
49949;BME280;35840;45.982;8.890;2023-03-04T06:15:54;98494.16;;;3.30;70.46
49949;BME280;35840;45.982;8.890;2023-03-04T06:18:21;98470.19;;;3.10;70.45
49949;BME280;35840;45.982;8.890;2023-03-04T06:20:48;98507.06;;;3.24;72.38
49949;BME280;35840;45.982;8.890;2023-03-04T06:23:15;98506.91;;;3.28;71.44
49949;BME280;35840;45.982;8.890;2023-03-04T06:25:42;98508.59;;;3.30;71.11
49949;BME280;35840;45.982;8.890;2023-03-04T06:28:09;98506.06;;;3.30;70.76
49949;BME280;35840;45.982;8.890;2023-03-04T06:30:35;98508.63;;;3.28;70.67
49949;BME280;35840;45.982;8.890;2023-03-04T06:33:02;98507.78;;;3.29;72.04
49949;BME280;35840;45.982;8.890;2023-03-04T06:35:29;98517.88;;;3.31;72.14
49949;BME280;35840;45.982;8.890;2023-03-04T06:37:55;98509.59;;;3.24;71.56
49949;BME280;35840;45.982;8.890;2023-03-04T06:40:22;98508.59;;;3.30;71.24
49949;BME280;35840;45.982;8.890;2023-03-04T06:42:49;98497.91;;;3.18;71.69
49949;BME280;35840;45.982;8.890;2023-03-04T06:45:16;98515.47;;;3.26;72.02
49949;BME280;35840;45.982;8.890;2023-03-04T06:47:42;98526.38;;;3.30;71.42
49949;BME280;35840;45.982;8.890;2023-03-04T06:50:12;98526.56;;;3.23;72.12
49949;BME280;35840;45.982;8.890;2023-03-04T06:52:39;98508.78;;;3.23;71.99
49949;BME280;35840;45.982;8.890;2023-03-04T06:55:06;98521.97;;;3.36;72.41
49949;BME280;35840;45.982;8.890;2023-03-04T06:57:33;98512.72;;;3.34;72.67
49949;BME280;35840;45.982;8.890;2023-03-04T07:00:00;98522.53;;;3.46;73.16
49949;BME280;35840;45.982;8.890;2023-03-04T07:02:28;98523.25;;;3.50;72.81
49949;BME280;35840;45.982;8.890;2023-03-04T07:04:55;98520.50;;;3.57;73.73
49949;BME280;35840;45.982;8.890;2023-03-04T07:07:22;98521.03;;;3.69;74.72
49949;BME280;35840;45.982;8.890;2023-03-04T07:09:49;98522.72;;;3.68;74.92
49949;BME280;35840;45.982;8.890;2023-03-04T07:12:15;98524.28;;;3.72;75.62
49949;BME280;35840;45.982;8.890;2023-03-04T07:14:42;98527.72;;;3.71;75.93
49949;BME280;35840;45.982;8.890;2023-03-04T07:17:09;98519.16;;;3.74;76.11
49949;BME280;35840;45.982;8.890;2023-03-04T07:19:35;98526.53;;;3.83;75.90
49949;BME280;35840;45.982;8.890;2023-03-04T07:22:03;98524.50;;;3.94;76.34
49949;BME280;35840;45.982;8.890;2023-03-04T07:24:29;98514.91;;;4.03;76.51
49949;BME280;35840;45.982;8.890;2023-03-04T07:26:56;98528.84;;;4.18;76.83
49949;BME280;35840;45.982;8.890;2023-03-04T07:29:23;98525.13;;;4.28;76.71
49949;BME280;35840;45.982;8.890;2023-03-04T07:31:49;98526.44;;;4.40;76.94
49949;BME280;35840;45.982;8.890;2023-03-04T07:34:19;98523.91;;;4.40;77.37
49949;BME280;35840;45.982;8.890;2023-03-04T07:36:46;98534.75;;;4.45;77.56
49949;BME280;35840;45.982;8.890;2023-03-04T07:39:12;98533.88;;;4.46;76.80
49949;BME280;35840;45.982;8.890;2023-03-04T07:41:40;98529.38;;;4.54;76.83
49949;BME280;35840;45.982;8.890;2023-03-04T07:44:07;98532.59;;;4.59;76.65
49949;BME280;35840;45.982;8.890;2023-03-04T07:46:37;98524.97;;;4.59;76.55
49949;BME280;35840;45.982;8.890;2023-03-04T07:49:04;98525.44;;;4.71;75.80
49949;BME280;35840;45.982;8.890;2023-03-04T07:51:31;98519.31;;;4.76;76.04
49949;BME280;35840;45.982;8.890;2023-03-04T07:53:59;98522.56;;;4.80;75.65
49949;BME280;35840;45.982;8.890;2023-03-04T07:56:29;98526.50;;;4.89;75.69
49949;BME280;35840;45.982;8.890;2023-03-04T07:58:57;98529.69;;;4.95;76.07
49949;BME280;35840;45.982;8.890;2023-03-04T08:01:35;98524.47;;;4.98;75.77
49949;BME280;35840;45.982;8.890;2023-03-04T08:04:03;98520.94;;;5.03;76.26
49949;BME280;35840;45.982;8.890;2023-03-04T08:06:31;98522.59;;;5.04;76.00
49949;BME280;35840;45.982;8.890;2023-03-04T08:09:00;98524.88;;;5.11;75.43
49949;BME280;35840;45.982;8.890;2023-03-04T08:11:28;98519.34;;;5.24;74.57
49949;BME280;35840;45.982;8.890;2023-03-04T08:13:56;98522.50;;;5.30;74.89
49949;BME280;35840;45.982;8.890;2023-03-04T08:16:22;98513.88;;;5.33;74.83
49949;BME280;35840;45.982;8.890;2023-03-04T08:18:54;98511.19;;;5.38;74.71
49949;BME280;35840;45.982;8.890;2023-03-04T08:21:22;98505.19;;;5.39;74.41
49949;BME280;35840;45.982;8.890;2023-03-04T08:23:50;98510.97;;;5.44;74.89
49949;BME280;35840;45.982;8.890;2023-03-04T08:26:23;98504.13;;;5.44;73.74
49949;BME280;35840;45.982;8.890;2023-03-04T08:28:51;98496.38;;;5.47;74.13
49949;BME280;35840;45.982;8.890;2023-03-04T08:31:18;98499.38;;;5.59;73.64
49949;BME280;35840;45.982;8.890;2023-03-04T08:33:45;98504.41;;;5.60;73.67
49949;BME280;35840;45.982;8.890;2023-03-04T08:36:13;98491.22;;;5.71;73.80
49949;BME280;35840;45.982;8.890;2023-03-04T08:38:40;98494.75;;;5.68;73.16
49949;BME280;35840;45.982;8.890;2023-03-04T08:41:07;98492.78;;;5.75;73.50
49949;BME280;35840;45.982;8.890;2023-03-04T08:43:34;98485.13;;;5.75;73.72
49949;BME280;35840;45.982;8.890;2023-03-04T08:46:01;98484.13;;;5.79;73.32
49949;BME280;35840;45.982;8.890;2023-03-04T08:48:28;98482.84;;;5.90;73.29
49949;BME280;35840;45.982;8.890;2023-03-04T08:50:54;98463.56;;;5.82;73.46
49949;BME280;35840;45.982;8.890;2023-03-04T08:53:21;98482.69;;;5.94;73.98
49949;BME280;35840;45.982;8.890;2023-03-04T08:55:50;98480.81;;;5.99;73.86
49949;BME280;35840;45.982;8.890;2023-03-04T08:58:17;98472.41;;;5.97;74.18
49949;BME280;35840;45.982;8.890;2023-03-04T09:00:45;98481.41;;;6.06;73.20
49949;BME280;35840;45.982;8.890;2023-03-04T09:03:17;98474.34;;;6.13;73.12
49949;BME280;35840;45.982;8.890;2023-03-04T09:05:46;98454.81;;;6.32;72.25
49949;BME280;35840;45.982;8.890;2023-03-04T09:08:14;98469.69;;;6.43;72.06
49949;BME280;35840;45.982;8.890;2023-03-04T09:10:42;98454.81;;;6.53;72.36
49949;BME280;35840;45.982;8.890;2023-03-04T09:13:09;98456.59;;;6.51;71.48
49949;BME280;35840;45.982;8.890;2023-03-04T09:15:37;98458.88;;;6.57;70.65
49949;BME280;35840;45.982;8.890;2023-03-04T09:18:09;98449.63;;;6.54;70.02
49949;BME280;35840;45.982;8.890;2023-03-04T09:20:36;98446.13;;;6.76;69.53
49949;BME280;35840;45.982;8.890;2023-03-04T09:23:02;98450.44;;;6.76;69.10
49949;BME280;35840;45.982;8.890;2023-03-04T09:25:29;98444.44;;;6.77;68.51
49949;BME280;35840;45.982;8.890;2023-03-04T09:27:56;98438.28;;;6.81;68.43
49949;BME280;35840;45.982;8.890;2023-03-04T09:30:22;98437.91;;;7.09;69.08
49949;BME280;35840;45.982;8.890;2023-03-04T09:32:50;98433.63;;;7.29;67.52
49949;BME280;35840;45.982;8.890;2023-03-04T09:35:17;98434.22;;;7.53;67.87
49949;BME280;35840;45.982;8.890;2023-03-04T09:37:44;98428.53;;;7.46;67.78
49949;BME280;35840;45.982;8.890;2023-03-04T09:40:17;98423.56;;;7.43;68.22
49949;BME280;35840;45.982;8.890;2023-03-04T09:42:49;98430.88;;;7.51;68.40
49949;BME280;35840;45.982;8.890;2023-03-04T09:45:20;98432.53;;;7.52;69.32
49949;BME280;35840;45.982;8.890;2023-03-04T09:47:52;98418.56;;;7.76;66.17
49949;BME280;35840;45.982;8.890;2023-03-04T09:50:20;98425.28;;;7.97;66.78
49949;BME280;35840;45.982;8.890;2023-03-04T09:55:38;98419.22;;;8.17;64.19
49949;BME280;35840;45.982;8.890;2023-03-04T10:00:42;98416.41;;;8.04;62.73
49949;BME280;35840;45.982;8.890;2023-03-04T10:06:19;98407.66;;;8.25;64.19
49949;BME280;35840;45.982;8.890;2023-03-04T10:11:44;98410.28;;;8.41;61.51
49949;BME280;35840;45.982;8.890;2023-03-04T10:16:51;98402.81;;;8.54;61.36
49949;BME280;35840;45.982;8.890;2023-03-04T10:21:50;98390.28;;;8.82;60.41
49949;BME280;35840;45.982;8.890;2023-03-04T10:24:19;98400.06;;;8.91;58.58
49949;BME280;35840;45.982;8.890;2023-03-04T10:26:58;98394.78;;;8.94;58.68
49949;BME280;35840;45.982;8.890;2023-03-04T10:29:29;98381.06;;;9.11;57.37
49949;BME280;35840;45.982;8.890;2023-03-04T10:31:57;98394.56;;;9.15;57.14
49949;BME280;35840;45.982;8.890;2023-03-04T10:34:23;98389.91;;;9.21;57.45
49949;BME280;35840;45.982;8.890;2023-03-04T10:37:05;98390.31;;;9.29;56.89
49949;BME280;35840;45.982;8.890;2023-03-04T10:39:42;98386.50;;;9.37;56.62
49949;BME280;35840;45.982;8.890;2023-03-04T10:44:44;98378.75;;;9.69;54.24
49949;BME280;35840;45.982;8.890;2023-03-04T10:47:16;98364.28;;;9.82;54.10
49949;BME280;35840;45.982;8.890;2023-03-04T10:49:52;98360.47;;;9.89;53.45
49949;BME280;35840;45.982;8.890;2023-03-04T10:54:57;98357.19;;;10.02;53.91
49949;BME280;35840;45.982;8.890;2023-03-04T10:57:32;98360.13;;;10.10;53.58
49949;BME280;35840;45.982;8.890;2023-03-04T11:00:00;98356.28;;;10.03;53.35
49949;BME280;35840;45.982;8.890;2023-03-04T11:02:35;98355.66;;;10.28;54.92
49949;BME280;35840;45.982;8.890;2023-03-04T11:13:00;98331.34;;;10.62;53.48
49949;BME280;35840;45.982;8.890;2023-03-04T11:18:33;98328.16;;;11.00;51.67
49949;BME280;35840;45.982;8.890;2023-03-04T11:21:05;98326.34;;;10.88;52.47
49949;BME280;35840;45.982;8.890;2023-03-04T11:23:52;98313.84;;;10.96;52.76
49949;BME280;35840;45.982;8.890;2023-03-04T11:26:25;98304.56;;;10.94;50.92
49949;BME280;35840;45.982;8.890;2023-03-04T11:31:37;98305.41;;;11.22;51.25
49949;BME280;35840;45.982;8.890;2023-03-04T11:34:17;98305.94;;;11.40;50.64
49949;BME280;35840;45.982;8.890;2023-03-04T11:40:14;98290.94;;;11.59;50.42
49949;BME280;35840;45.982;8.890;2023-03-04T11:42:47;98289.94;;;11.62;50.33
49949;BME280;35840;45.982;8.890;2023-03-04T11:45:22;98277.34;;;11.44;49.72
49949;BME280;35840;45.982;8.890;2023-03-04T12:01:53;98250.84;;;11.95;48.46
49949;BME280;35840;45.982;8.890;2023-03-04T12:04:43;98240.50;;;11.82;47.71
49949;BME280;35840;45.982;8.890;2023-03-04T12:10:05;98237.28;;;11.92;50.16
49949;BME280;35840;45.982;8.890;2023-03-04T12:15:19;98226.91;;;12.43;48.52
49949;BME280;35840;45.982;8.890;2023-03-04T12:20:42;98214.00;;;12.56;47.17
49949;BME280;35840;45.982;8.890;2023-03-04T12:26:10;98194.41;;;12.53;47.03
49949;BME280;35840;45.982;8.890;2023-03-04T12:28:58;98190.94;;;12.66;48.24
49949;BME280;35840;45.982;8.890;2023-03-04T12:31:38;98189.53;;;12.62;47.76
49949;BME280;35840;45.982;8.890;2023-03-04T12:39:33;98181.53;;;12.89;46.10
49949;BME280;35840;45.982;8.890;2023-03-04T12:48:04;98156.41;;;13.26;45.74
49949;BME280;35840;45.982;8.890;2023-03-04T12:56:21;98143.31;;;13.41;44.22
49949;BME280;35840;45.982;8.890;2023-03-04T12:58:49;98141.69;;;13.40;45.12
49949;BME280;35840;45.982;8.890;2023-03-04T13:01:26;98135.94;;;13.48;46.58
49949;BME280;35840;45.982;8.890;2023-03-04T13:04:06;98140.66;;;13.54;44.79
49949;BME280;35840;45.982;8.890;2023-03-04T13:06:43;98128.53;;;13.54;43.90
49949;BME280;35840;45.982;8.890;2023-03-04T13:09:37;98126.53;;;13.58;43.93
49949;BME280;35840;45.982;8.890;2023-03-04T13:12:17;98128.53;;;13.54;44.94
49949;BME280;35840;45.982;8.890;2023-03-04T13:23:03;98122.03;;;14.05;43.84
49949;BME280;35840;45.982;8.890;2023-03-04T13:38:32;98098.09;;;14.36;42.80
49949;BME280;35840;45.982;8.890;2023-03-04T13:56:41;98089.56;;;14.56;41.34
49949;BME280;35840;45.982;8.890;2023-03-04T14:06:43;98077.69;;;14.54;41.94
49949;BME280;35840;45.982;8.890;2023-03-04T14:09:21;98080.84;;;14.57;40.86
49949;BME280;35840;45.982;8.890;2023-03-04T14:11:56;98080.25;;;14.65;41.41
49949;BME280;35840;45.982;8.890;2023-03-04T14:14:31;98072.75;;;14.62;41.01
49949;BME280;35840;45.982;8.890;2023-03-04T14:17:04;98063.22;;;14.51;41.74
49949;BME280;35840;45.982;8.890;2023-03-04T14:19:37;98072.09;;;14.70;41.29
49949;BME280;35840;45.982;8.890;2023-03-04T14:22:37;98062.72;;;14.69;41.12
49949;BME280;35840;45.982;8.890;2023-03-04T14:27:39;98056.03;;;14.66;41.80
49949;BME280;35840;45.982;8.890;2023-03-04T14:30:21;98061.19;;;14.66;40.86
49949;BME280;35840;45.982;8.890;2023-03-04T14:33:12;98049.06;;;14.67;42.11
49949;BME280;35840;45.982;8.890;2023-03-04T14:35:45;98051.84;;;14.75;41.03
49949;BME280;35840;45.982;8.890;2023-03-04T14:40:52;98051.06;;;14.84;41.19
49949;BME280;35840;45.982;8.890;2023-03-04T14:43:22;98035.75;;;14.71;42.38
49949;BME280;35840;45.982;8.890;2023-03-04T14:45:54;98043.06;;;14.87;41.69
49949;BME280;35840;45.982;8.890;2023-03-04T14:50:54;98028.75;;;14.83;41.92
49949;BME280;35840;45.982;8.890;2023-03-04T14:53:26;98027.91;;;14.83;43.23
49949;BME280;35840;45.982;8.890;2023-03-04T14:56:01;98031.94;;;14.75;42.97
49949;BME280;35840;45.982;8.890;2023-03-04T14:58:30;98031.66;;;14.69;42.51
49949;BME280;35840;45.982;8.890;2023-03-04T15:01:14;98024.25;;;14.64;43.05
49949;BME280;35840;45.982;8.890;2023-03-04T15:03:45;98015.22;;;14.58;43.77
49949;BME280;35840;45.982;8.890;2023-03-04T15:06:21;98022.72;;;14.61;43.36
49949;BME280;35840;45.982;8.890;2023-03-04T15:11:29;98024.69;;;14.48;44.97
49949;BME280;35840;45.982;8.890;2023-03-04T15:13:58;98019.31;;;14.40;45.21
49949;BME280;35840;45.982;8.890;2023-03-04T15:16:28;98016.16;;;14.36;44.31
49949;BME280;35840;45.982;8.890;2023-03-04T15:19:02;98020.75;;;14.33;45.32
49949;BME280;35840;45.982;8.890;2023-03-04T15:21:36;98020.31;;;14.27;45.05
49949;BME280;35840;45.982;8.890;2023-03-04T15:24:06;98015.16;;;14.27;46.03
49949;BME280;35840;45.982;8.890;2023-03-04T15:26:37;98012.63;;;14.16;45.92
49949;BME280;35840;45.982;8.890;2023-03-04T15:29:17;98005.34;;;14.10;45.15
49949;BME280;35840;45.982;8.890;2023-03-04T15:31:44;98011.78;;;14.16;45.82
49949;BME280;35840;45.982;8.890;2023-03-04T15:34:15;98012.84;;;14.13;45.09
49949;BME280;35840;45.982;8.890;2023-03-04T15:36:47;98014.03;;;14.09;45.83
49949;BME280;35840;45.982;8.890;2023-03-04T15:39:16;98020.28;;;14.06;46.15
49949;BME280;35840;45.982;8.890;2023-03-04T15:41:43;98019.09;;;14.10;46.64